sensor_id;sensor_type;location;lat;lon;timestamp;P1;durP1;ratioP1;P2;durP2;ratioP2
23080;SDS011;11708;50.570;8.532;2023-04-29T00:00:19;5.97;;;4.65;;
23080;SDS011;11708;50.570;8.532;2023-04-29T00:02:45;8.23;;;5.35;;
23080;SDS011;11708;50.570;8.532;2023-04-29T00:05:10;6.95;;;5.47;;
23080;SDS011;11708;50.570;8.532;2023-04-29T00:07:37;8.48;;;5.45;;
23080;SDS011;11708;50.570;8.532;2023-04-29T00:10:03;6.30;;;5.18;;
23080;SDS011;11708;50.570;8.532;2023-04-29T00:12:29;6.57;;;5.13;;
23080;SDS011;11708;50.570;8.532;2023-04-29T00:14:56;6.93;;;5.53;;
23080;SDS011;11708;50.570;8.532;2023-04-29T00:17:21;8.88;;;6.25;;
23080;SDS011;11708;50.570;8.532;2023-04-29T00:19:47;9.80;;;5.53;;
23080;SDS011;11708;50.570;8.532;2023-04-29T00:22:12;8.13;;;5.30;;
23080;SDS011;11708;50.570;8.532;2023-04-29T00:24:38;8.55;;;5.88;;
23080;SDS011;11708;50.570;8.532;2023-04-29T00:27:03;8.57;;;5.63;;
23080;SDS011;11708;50.570;8.532;2023-04-29T00:29:30;8.57;;;6.25;;
23080;SDS011;11708;50.570;8.532;2023-04-29T00:31:55;7.47;;;5.70;;
23080;SDS011;11708;50.570;8.532;2023-04-29T00:34:21;12.45;;;6.40;;
23080;SDS011;11708;50.570;8.532;2023-04-29T00:36:47;7.63;;;5.63;;
23080;SDS011;11708;50.570;8.532;2023-04-29T00:39:13;9.25;;;5.72;;
23080;SDS011;11708;50.570;8.532;2023-04-29T00:41:39;6.93;;;5.40;;
23080;SDS011;11708;50.570;8.532;2023-04-29T00:44:04;7.13;;;5.88;;
23080;SDS011;11708;50.570;8.532;2023-04-29T00:46:31;7.47;;;5.65;;
23080;SDS011;11708;50.570;8.532;2023-04-29T00:48:57;7.70;;;6.05;;
23080;SDS011;11708;50.570;8.532;2023-04-29T00:51:24;6.13;;;5.53;;
23080;SDS011;11708;50.570;8.532;2023-04-29T00:53:52;8.05;;;6.22;;
23080;SDS011;11708;50.570;8.532;2023-04-29T00:56:18;7.93;;;5.55;;
23080;SDS011;11708;50.570;8.532;2023-04-29T00:58:46;6.22;;;5.18;;
23080;SDS011;11708;50.570;8.532;2023-04-29T01:01:19;7.22;;;5.57;;
23080;SDS011;11708;50.570;8.532;2023-04-29T01:03:45;7.05;;;5.50;;
23080;SDS011;11708;50.570;8.532;2023-04-29T01:11:38;7.32;;;5.15;;
23080;SDS011;11708;50.570;8.532;2023-04-29T01:14:25;6.60;;;5.35;;
23080;SDS011;11708;50.570;8.532;2023-04-29T01:16:52;7.88;;;6.00;;
23080;SDS011;11708;50.570;8.532;2023-04-29T01:22:19;8.95;;;6.30;;
23080;SDS011;11708;50.570;8.532;2023-04-29T01:24:45;10.18;;;5.90;;
23080;SDS011;11708;50.570;8.532;2023-04-29T01:32:50;7.85;;;5.88;;
23080;SDS011;11708;50.570;8.532;2023-04-29T01:38:16;9.65;;;5.93;;
23080;SDS011;11708;50.570;8.532;2023-04-29T01:40:50;9.00;;;6.50;;
23080;SDS011;11708;50.570;8.532;2023-04-29T01:43:23;9.77;;;6.97;;
23080;SDS011;11708;50.570;8.532;2023-04-29T01:45:53;8.63;;;6.28;;
23080;SDS011;11708;50.570;8.532;2023-04-29T01:48:21;8.50;;;6.80;;
23080;SDS011;11708;50.570;8.532;2023-04-29T01:50:47;7.72;;;6.22;;
23080;SDS011;11708;50.570;8.532;2023-04-29T01:53:12;8.75;;;6.63;;
23080;SDS011;11708;50.570;8.532;2023-04-29T01:55:38;9.68;;;6.80;;
23080;SDS011;11708;50.570;8.532;2023-04-29T01:58:03;10.50;;;6.25;;
23080;SDS011;11708;50.570;8.532;2023-04-29T02:00:29;8.43;;;6.40;;
23080;SDS011;11708;50.570;8.532;2023-04-29T02:02:54;9.32;;;7.05;;
23080;SDS011;11708;50.570;8.532;2023-04-29T02:05:20;15.63;;;7.20;;
23080;SDS011;11708;50.570;8.532;2023-04-29T02:07:45;8.48;;;6.90;;
23080;SDS011;11708;50.570;8.532;2023-04-29T02:10:11;11.10;;;6.07;;
23080;SDS011;11708;50.570;8.532;2023-04-29T02:12:37;10.73;;;7.15;;
23080;SDS011;11708;50.570;8.532;2023-04-29T02:15:03;10.65;;;7.28;;
23080;SDS011;11708;50.570;8.532;2023-04-29T02:17:29;10.60;;;7.93;;
23080;SDS011;11708;50.570;8.532;2023-04-29T02:19:54;12.48;;;8.13;;
23080;SDS011;11708;50.570;8.532;2023-04-29T02:22:20;11.60;;;7.90;;
23080;SDS011;11708;50.570;8.532;2023-04-29T02:24:46;12.23;;;8.52;;
23080;SDS011;11708;50.570;8.532;2023-04-29T02:27:11;12.50;;;8.55;;
23080;SDS011;11708;50.570;8.532;2023-04-29T02:29:37;12.77;;;8.77;;
23080;SDS011;11708;50.570;8.532;2023-04-29T02:32:03;13.40;;;9.00;;
23080;SDS011;11708;50.570;8.532;2023-04-29T02:34:28;11.70;;;8.40;;
23080;SDS011;11708;50.570;8.532;2023-04-29T02:36:55;13.35;;;9.13;;
23080;SDS011;11708;50.570;8.532;2023-04-29T02:39:21;12.40;;;8.85;;
23080;SDS011;11708;50.570;8.532;2023-04-29T02:41:47;11.30;;;8.30;;
23080;SDS011;11708;50.570;8.532;2023-04-29T02:44:13;14.65;;;7.78;;
23080;SDS011;11708;50.570;8.532;2023-04-29T02:46:38;14.25;;;9.02;;
23080;SDS011;11708;50.570;8.532;2023-04-29T02:49:09;14.30;;;9.15;;
23080;SDS011;11708;50.570;8.532;2023-04-29T02:51:35;16.05;;;9.48;;
23080;SDS011;11708;50.570;8.532;2023-04-29T02:54:00;14.48;;;9.43;;
23080;SDS011;11708;50.570;8.532;2023-04-29T02:56:26;14.73;;;9.70;;
23080;SDS011;11708;50.570;8.532;2023-04-29T02:58:51;19.02;;;10.80;;
23080;SDS011;11708;50.570;8.532;2023-04-29T03:01:17;17.58;;;11.10;;
23080;SDS011;11708;50.570;8.532;2023-04-29T03:03:42;16.58;;;10.68;;
23080;SDS011;11708;50.570;8.532;2023-04-29T03:06:08;23.08;;;11.43;;
23080;SDS011;11708;50.570;8.532;2023-04-29T03:08:34;18.80;;;10.68;;
23080;SDS011;11708;50.570;8.532;2023-04-29T03:10:59;18.77;;;11.50;;
23080;SDS011;11708;50.570;8.532;2023-04-29T03:13:25;18.08;;;10.85;;
23080;SDS011;11708;50.570;8.532;2023-04-29T03:15:50;17.93;;;11.40;;
23080;SDS011;11708;50.570;8.532;2023-04-29T03:18:16;18.23;;;11.20;;
23080;SDS011;11708;50.570;8.532;2023-04-29T03:20:42;18.73;;;11.80;;
23080;SDS011;11708;50.570;8.532;2023-04-29T03:23:07;16.92;;;10.93;;
23080;SDS011;11708;50.570;8.532;2023-04-29T03:25:33;20.02;;;11.90;;
23080;SDS011;11708;50.570;8.532;2023-04-29T03:27:58;19.55;;;11.10;;
23080;SDS011;11708;50.570;8.532;2023-04-29T03:30:24;20.92;;;11.93;;
23080;SDS011;11708;50.570;8.532;2023-04-29T03:32:49;17.38;;;10.50;;
23080;SDS011;11708;50.570;8.532;2023-04-29T03:35:15;18.30;;;11.40;;
23080;SDS011;11708;50.570;8.532;2023-04-29T03:37:41;20.27;;;12.07;;
23080;SDS011;11708;50.570;8.532;2023-04-29T03:40:08;18.70;;;11.00;;
23080;SDS011;11708;50.570;8.532;2023-04-29T03:42:35;16.13;;;10.50;;
23080;SDS011;11708;50.570;8.532;2023-04-29T03:45:00;18.15;;;10.65;;
23080;SDS011;11708;50.570;8.532;2023-04-29T03:47:26;17.40;;;9.80;;
23080;SDS011;11708;50.570;8.532;2023-04-29T03:49:51;15.13;;;9.80;;
23080;SDS011;11708;50.570;8.532;2023-04-29T03:52:17;15.20;;;9.68;;
23080;SDS011;11708;50.570;8.532;2023-04-29T03:54:43;14.57;;;8.55;;
23080;SDS011;11708;50.570;8.532;2023-04-29T03:57:08;12.18;;;8.18;;
23080;SDS011;11708;50.570;8.532;2023-04-29T03:59:34;13.88;;;9.13;;
23080;SDS011;11708;50.570;8.532;2023-04-29T04:02:00;12.73;;;8.57;;
23080;SDS011;11708;50.570;8.532;2023-04-29T04:04:25;17.02;;;7.95;;
23080;SDS011;11708;50.570;8.532;2023-04-29T04:06:51;13.82;;;8.93;;
23080;SDS011;11708;50.570;8.532;2023-04-29T04:09:19;12.65;;;8.25;;
23080;SDS011;11708;50.570;8.532;2023-04-29T04:11:45;12.35;;;7.32;;
23080;SDS011;11708;50.570;8.532;2023-04-29T04:14:11;10.70;;;7.55;;
23080;SDS011;11708;50.570;8.532;2023-04-29T04:16:37;13.30;;;8.05;;
23080;SDS011;11708;50.570;8.532;2023-04-29T04:19:02;15.07;;;8.60;;
23080;SDS011;11708;50.570;8.532;2023-04-29T04:21:28;14.23;;;8.70;;
23080;SDS011;11708;50.570;8.532;2023-04-29T04:23:54;13.00;;;8.80;;
23080;SDS011;11708;50.570;8.532;2023-04-29T04:26:20;13.68;;;9.07;;
23080;SDS011;11708;50.570;8.532;2023-04-29T04:28:45;13.32;;;8.55;;
23080;SDS011;11708;50.570;8.532;2023-04-29T04:31:11;16.30;;;9.98;;
23080;SDS011;11708;50.570;8.532;2023-04-29T04:33:40;17.02;;;10.07;;
23080;SDS011;11708;50.570;8.532;2023-04-29T04:36:05;16.25;;;10.80;;
23080;SDS011;11708;50.570;8.532;2023-04-29T04:38:31;17.75;;;9.82;;
23080;SDS011;11708;50.570;8.532;2023-04-29T04:40:57;15.85;;;10.82;;
23080;SDS011;11708;50.570;8.532;2023-04-29T04:43:23;20.02;;;11.00;;
23080;SDS011;11708;50.570;8.532;2023-04-29T04:45:49;16.40;;;10.90;;
23080;SDS011;11708;50.570;8.532;2023-04-29T04:48:14;25.58;;;12.88;;
23080;SDS011;11708;50.570;8.532;2023-04-29T04:50:40;18.60;;;11.75;;
23080;SDS011;11708;50.570;8.532;2023-04-29T04:53:06;22.25;;;12.48;;
23080;SDS011;11708;50.570;8.532;2023-04-29T04:55:31;22.73;;;13.25;;
23080;SDS011;11708;50.570;8.532;2023-04-29T04:58:00;21.98;;;13.55;;
23080;SDS011;11708;50.570;8.532;2023-04-29T05:00:26;20.73;;;13.35;;
23080;SDS011;11708;50.570;8.532;2023-04-29T05:02:51;22.77;;;13.13;;
23080;SDS011;11708;50.570;8.532;2023-04-29T05:05:17;20.98;;;13.27;;
23080;SDS011;11708;50.570;8.532;2023-04-29T05:07:42;22.95;;;14.45;;
23080;SDS011;11708;50.570;8.532;2023-04-29T05:10:08;24.35;;;14.55;;
23080;SDS011;11708;50.570;8.532;2023-04-29T05:12:35;23.27;;;13.93;;
23080;SDS011;11708;50.570;8.532;2023-04-29T05:15:01;20.92;;;12.85;;
23080;SDS011;11708;50.570;8.532;2023-04-29T05:17:26;22.00;;;12.93;;
23080;SDS011;11708;50.570;8.532;2023-04-29T05:19:52;22.05;;;12.85;;
23080;SDS011;11708;50.570;8.532;2023-04-29T05:22:18;22.63;;;12.80;;
23080;SDS011;11708;50.570;8.532;2023-04-29T05:24:43;21.10;;;13.00;;
23080;SDS011;11708;50.570;8.532;2023-04-29T05:27:09;23.80;;;12.70;;
23080;SDS011;11708;50.570;8.532;2023-04-29T05:29:34;22.30;;;13.30;;
23080;SDS011;11708;50.570;8.532;2023-04-29T05:32:00;22.15;;;12.43;;
23080;SDS011;11708;50.570;8.532;2023-04-29T05:34:26;22.70;;;12.90;;
23080;SDS011;11708;50.570;8.532;2023-04-29T05:36:51;21.30;;;12.73;;
23080;SDS011;11708;50.570;8.532;2023-04-29T05:39:17;23.92;;;12.60;;
23080;SDS011;11708;50.570;8.532;2023-04-29T05:41:42;19.67;;;13.07;;
23080;SDS011;11708;50.570;8.532;2023-04-29T05:44:08;20.58;;;12.10;;
23080;SDS011;11708;50.570;8.532;2023-04-29T05:46:34;22.67;;;12.20;;
23080;SDS011;11708;50.570;8.532;2023-04-29T05:48:59;20.13;;;11.57;;
23080;SDS011;11708;50.570;8.532;2023-04-29T05:51:25;19.08;;;11.60;;
23080;SDS011;11708;50.570;8.532;2023-04-29T05:53:52;20.65;;;12.32;;
23080;SDS011;11708;50.570;8.532;2023-04-29T05:56:20;18.90;;;11.70;;
23080;SDS011;11708;50.570;8.532;2023-04-29T05:58:46;20.70;;;11.30;;
23080;SDS011;11708;50.570;8.532;2023-04-29T06:01:12;21.92;;;11.73;;
23080;SDS011;11708;50.570;8.532;2023-04-29T06:03:37;22.70;;;11.88;;
23080;SDS011;11708;50.570;8.532;2023-04-29T06:06:03;21.35;;;12.73;;
23080;SDS011;11708;50.570;8.532;2023-04-29T06:08:28;20.30;;;10.88;;
23080;SDS011;11708;50.570;8.532;2023-04-29T06:10:54;21.88;;;12.55;;
23080;SDS011;11708;50.570;8.532;2023-04-29T06:13:20;20.65;;;11.73;;
23080;SDS011;11708;50.570;8.532;2023-04-29T06:15:45;21.08;;;11.63;;
23080;SDS011;11708;50.570;8.532;2023-04-29T06:18:11;21.48;;;11.70;;
23080;SDS011;11708;50.570;8.532;2023-04-29T06:20:37;20.77;;;11.85;;
23080;SDS011;11708;50.570;8.532;2023-04-29T06:23:02;19.90;;;12.20;;
23080;SDS011;11708;50.570;8.532;2023-04-29T06:25:29;18.27;;;11.13;;
23080;SDS011;11708;50.570;8.532;2023-04-29T06:27:55;18.70;;;11.18;;
23080;SDS011;11708;50.570;8.532;2023-04-29T06:30:21;19.63;;;11.18;;
23080;SDS011;11708;50.570;8.532;2023-04-29T06:32:47;20.95;;;11.82;;
23080;SDS011;11708;50.570;8.532;2023-04-29T06:35:12;21.88;;;11.98;;
23080;SDS011;11708;50.570;8.532;2023-04-29T06:37:38;18.33;;;10.88;;
23080;SDS011;11708;50.570;8.532;2023-04-29T06:40:04;17.92;;;10.95;;
23080;SDS011;11708;50.570;8.532;2023-04-29T06:42:31;19.30;;;10.93;;
23080;SDS011;11708;50.570;8.532;2023-04-29T06:44:56;20.40;;;11.52;;
23080;SDS011;11708;50.570;8.532;2023-04-29T06:47:22;19.83;;;11.50;;
23080;SDS011;11708;50.570;8.532;2023-04-29T06:49:47;21.25;;;11.55;;
23080;SDS011;11708;50.570;8.532;2023-04-29T06:52:13;21.60;;;11.55;;
23080;SDS011;11708;50.570;8.532;2023-04-29T06:54:39;17.92;;;11.23;;
23080;SDS011;11708;50.570;8.532;2023-04-29T06:57:04;16.73;;;10.23;;
23080;SDS011;11708;50.570;8.532;2023-04-29T06:59:30;19.85;;;10.85;;
23080;SDS011;11708;50.570;8.532;2023-04-29T07:01:56;21.58;;;10.98;;
23080;SDS011;11708;50.570;8.532;2023-04-29T07:04:22;20.42;;;10.77;;
23080;SDS011;11708;50.570;8.532;2023-04-29T07:06:47;19.58;;;9.60;;
23080;SDS011;11708;50.570;8.532;2023-04-29T07:09:13;14.38;;;8.88;;
23080;SDS011;11708;50.570;8.532;2023-04-29T07:11:39;17.77;;;10.00;;
23080;SDS011;11708;50.570;8.532;2023-04-29T07:14:05;15.90;;;10.05;;
23080;SDS011;11708;50.570;8.532;2023-04-29T07:16:31;16.48;;;9.75;;
23080;SDS011;11708;50.570;8.532;2023-04-29T07:18:57;15.40;;;9.70;;
23080;SDS011;11708;50.570;8.532;2023-04-29T07:21:23;17.13;;;10.23;;
23080;SDS011;11708;50.570;8.532;2023-04-29T07:23:50;16.08;;;10.05;;
23080;SDS011;11708;50.570;8.532;2023-04-29T07:26:16;17.92;;;9.98;;
23080;SDS011;11708;50.570;8.532;2023-04-29T07:28:42;15.00;;;9.57;;
23080;SDS011;11708;50.570;8.532;2023-04-29T07:31:08;20.13;;;11.00;;
23080;SDS011;11708;50.570;8.532;2023-04-29T07:33:35;14.65;;;8.85;;
23080;SDS011;11708;50.570;8.532;2023-04-29T07:36:01;13.88;;;7.57;;
23080;SDS011;11708;50.570;8.532;2023-04-29T07:38:28;12.10;;;7.25;;
23080;SDS011;11708;50.570;8.532;2023-04-29T07:40:54;12.02;;;7.20;;
23080;SDS011;11708;50.570;8.532;2023-04-29T07:43:20;12.50;;;7.65;;
23080;SDS011;11708;50.570;8.532;2023-04-29T07:45:45;11.57;;;6.93;;
23080;SDS011;11708;50.570;8.532;2023-04-29T07:48:11;13.98;;;7.03;;
23080;SDS011;11708;50.570;8.532;2023-04-29T07:50:37;12.13;;;6.57;;
23080;SDS011;11708;50.570;8.532;2023-04-29T07:53:02;9.75;;;5.95;;
23080;SDS011;11708;50.570;8.532;2023-04-29T07:55:29;11.55;;;6.85;;
23080;SDS011;11708;50.570;8.532;2023-04-29T07:57:55;10.35;;;7.10;;
23080;SDS011;11708;50.570;8.532;2023-04-29T08:00:21;9.88;;;6.47;;
23080;SDS011;11708;50.570;8.532;2023-04-29T08:02:51;12.20;;;7.47;;
23080;SDS011;11708;50.570;8.532;2023-04-29T08:05:17;11.27;;;7.57;;
23080;SDS011;11708;50.570;8.532;2023-04-29T08:07:44;12.43;;;7.43;;
23080;SDS011;11708;50.570;8.532;2023-04-29T08:10:10;11.02;;;6.57;;
23080;SDS011;11708;50.570;8.532;2023-04-29T08:12:35;10.80;;;6.63;;
23080;SDS011;11708;50.570;8.532;2023-04-29T08:15:01;11.30;;;6.70;;
23080;SDS011;11708;50.570;8.532;2023-04-29T08:17:27;11.25;;;7.43;;
23080;SDS011;11708;50.570;8.532;2023-04-29T08:19:52;11.55;;;6.80;;
23080;SDS011;11708;50.570;8.532;2023-04-29T08:22:18;10.38;;;6.20;;
23080;SDS011;11708;50.570;8.532;2023-04-29T08:24:44;10.27;;;6.60;;
23080;SDS011;11708;50.570;8.532;2023-04-29T08:27:10;9.75;;;5.80;;
23080;SDS011;11708;50.570;8.532;2023-04-29T08:29:35;9.20;;;5.90;;
23080;SDS011;11708;50.570;8.532;2023-04-29T08:32:01;9.75;;;5.13;;
23080;SDS011;11708;50.570;8.532;2023-04-29T08:34:27;8.50;;;5.35;;
23080;SDS011;11708;50.570;8.532;2023-04-29T08:36:52;7.57;;;4.43;;
23080;SDS011;11708;50.570;8.532;2023-04-29T08:39:18;6.80;;;4.60;;
23080;SDS011;11708;50.570;8.532;2023-04-29T08:41:43;8.07;;;4.60;;
23080;SDS011;11708;50.570;8.532;2023-04-29T08:44:13;7.03;;;4.18;;
23080;SDS011;11708;50.570;8.532;2023-04-29T08:46:41;6.13;;;4.00;;
23080;SDS011;11708;50.570;8.532;2023-04-29T08:49:09;9.52;;;4.20;;
23080;SDS011;11708;50.570;8.532;2023-04-29T08:51:35;7.95;;;4.15;;
23080;SDS011;11708;50.570;8.532;2023-04-29T08:54:01;9.90;;;6.28;;
23080;SDS011;11708;50.570;8.532;2023-04-29T08:56:26;10.77;;;5.40;;
23080;SDS011;11708;50.570;8.532;2023-04-29T08:58:54;11.43;;;7.07;;
23080;SDS011;11708;50.570;8.532;2023-04-29T09:01:23;11.25;;;7.97;;
23080;SDS011;11708;50.570;8.532;2023-04-29T09:06:38;10.80;;;7.47;;
23080;SDS011;11708;50.570;8.532;2023-04-29T09:09:04;10.63;;;7.00;;
23080;SDS011;11708;50.570;8.532;2023-04-29T09:11:30;19.88;;;15.07;;
23080;SDS011;11708;50.570;8.532;2023-04-29T09:13:58;19.73;;;14.30;;
23080;SDS011;11708;50.570;8.532;2023-04-29T09:16:25;19.60;;;14.25;;
23080;SDS011;11708;50.570;8.532;2023-04-29T09:18:51;8.02;;;5.63;;
23080;SDS011;11708;50.570;8.532;2023-04-29T09:21:19;6.18;;;4.40;;
23080;SDS011;11708;50.570;8.532;2023-04-29T09:23:46;9.85;;;3.92;;
23080;SDS011;11708;50.570;8.532;2023-04-29T09:26:13;4.20;;;2.40;;
23080;SDS011;11708;50.570;8.532;2023-04-29T09:28:40;3.35;;;2.05;;
23080;SDS011;11708;50.570;8.532;2023-04-29T09:31:09;2.60;;;2.00;;
23080;SDS011;11708;50.570;8.532;2023-04-29T09:33:53;5.38;;;4.45;;
23080;SDS011;11708;50.570;8.532;2023-04-29T09:39:16;3.15;;;2.60;;
23080;SDS011;11708;50.570;8.532;2023-04-29T09:44:27;2.00;;;1.77;;
23080;SDS011;11708;50.570;8.532;2023-04-29T09:47:07;7.25;;;4.93;;
23080;SDS011;11708;50.570;8.532;2023-04-29T09:49:36;5.47;;;3.60;;
23080;SDS011;11708;50.570;8.532;2023-04-29T09:52:06;2.60;;;1.95;;
23080;SDS011;11708;50.570;8.532;2023-04-29T09:54:37;2.17;;;1.70;;
23080;SDS011;11708;50.570;8.532;2023-04-29T09:57:04;3.42;;;1.65;;
23080;SDS011;11708;50.570;8.532;2023-04-29T09:59:31;2.00;;;1.48;;
23080;SDS011;11708;50.570;8.532;2023-04-29T10:02:01;2.13;;;1.80;;
23080;SDS011;11708;50.570;8.532;2023-04-29T10:04:33;4.13;;;1.90;;
23080;SDS011;11708;50.570;8.532;2023-04-29T10:07:00;2.13;;;1.90;;
23080;SDS011;11708;50.570;8.532;2023-04-29T10:09:26;3.28;;;1.83;;
23080;SDS011;11708;50.570;8.532;2023-04-29T10:11:53;2.72;;;1.73;;
23080;SDS011;11708;50.570;8.532;2023-04-29T10:14:19;1.70;;;1.60;;
23080;SDS011;11708;50.570;8.532;2023-04-29T10:22:07;1.90;;;1.52;;
23080;SDS011;11708;50.570;8.532;2023-04-29T10:24:36;2.30;;;2.10;;
23080;SDS011;11708;50.570;8.532;2023-04-29T10:27:05;2.80;;;2.33;;
23080;SDS011;11708;50.570;8.532;2023-04-29T10:29:32;2.70;;;1.75;;
23080;SDS011;11708;50.570;8.532;2023-04-29T10:32:00;2.08;;;1.50;;
23080;SDS011;11708;50.570;8.532;2023-04-29T10:34:28;1.80;;;1.70;;
23080;SDS011;11708;50.570;8.532;2023-04-29T10:36:55;1.50;;;1.40;;
23080;SDS011;11708;50.570;8.532;2023-04-29T10:39:25;2.28;;;1.65;;
23080;SDS011;11708;50.570;8.532;2023-04-29T10:42:00;1.55;;;1.45;;
23080;SDS011;11708;50.570;8.532;2023-04-29T10:44:29;1.85;;;1.60;;
23080;SDS011;11708;50.570;8.532;2023-04-29T10:50:00;2.50;;;1.98;;
23080;SDS011;11708;50.570;8.532;2023-04-29T10:52:28;1.67;;;1.50;;
23080;SDS011;11708;50.570;8.532;2023-04-29T10:55:00;1.58;;;1.48;;
23080;SDS011;11708;50.570;8.532;2023-04-29T10:57:27;1.60;;;1.50;;
23080;SDS011;11708;50.570;8.532;2023-04-29T10:59:54;2.13;;;1.90;;
23080;SDS011;11708;50.570;8.532;2023-04-29T11:02:20;2.42;;;1.70;;
23080;SDS011;11708;50.570;8.532;2023-04-29T11:07:36;2.08;;;1.60;;
23080;SDS011;11708;50.570;8.532;2023-04-29T11:10:01;3.00;;;1.50;;
23080;SDS011;11708;50.570;8.532;2023-04-29T11:12:27;2.85;;;1.60;;
23080;SDS011;11708;50.570;8.532;2023-04-29T11:14:53;2.28;;;1.67;;
23080;SDS011;11708;50.570;8.532;2023-04-29T11:17:26;1.60;;;1.50;;
23080;SDS011;11708;50.570;8.532;2023-04-29T11:20:00;1.88;;;1.70;;
23080;SDS011;11708;50.570;8.532;2023-04-29T11:22:26;2.38;;;1.92;;
23080;SDS011;11708;50.570;8.532;2023-04-29T11:27:25;2.70;;;2.00;;
23080;SDS011;11708;50.570;8.532;2023-04-29T11:29:54;1.88;;;1.67;;
23080;SDS011;11708;50.570;8.532;2023-04-29T11:32:22;2.28;;;2.08;;
23080;SDS011;11708;50.570;8.532;2023-04-29T11:34:49;2.47;;;2.10;;
23080;SDS011;11708;50.570;8.532;2023-04-29T11:37:23;2.75;;;2.10;;
23080;SDS011;11708;50.570;8.532;2023-04-29T11:39:49;2.58;;;1.92;;
23080;SDS011;11708;50.570;8.532;2023-04-29T11:42:19;2.97;;;1.80;;
23080;SDS011;11708;50.570;8.532;2023-04-29T11:44:46;2.55;;;2.20;;
23080;SDS011;11708;50.570;8.532;2023-04-29T11:47:15;2.90;;;2.35;;
23080;SDS011;11708;50.570;8.532;2023-04-29T11:49:40;3.53;;;2.00;;
23080;SDS011;11708;50.570;8.532;2023-04-29T11:52:06;2.67;;;2.13;;
23080;SDS011;11708;50.570;8.532;2023-04-29T11:54:32;3.40;;;2.28;;
23080;SDS011;11708;50.570;8.532;2023-04-29T11:56:58;3.17;;;2.63;;
23080;SDS011;11708;50.570;8.532;2023-04-29T11:59:24;3.30;;;3.00;;
23080;SDS011;11708;50.570;8.532;2023-04-29T12:01:50;4.20;;;2.78;;
23080;SDS011;11708;50.570;8.532;2023-04-29T12:04:16;3.55;;;2.72;;
23080;SDS011;11708;50.570;8.532;2023-04-29T12:06:43;4.00;;;3.47;;
23080;SDS011;11708;50.570;8.532;2023-04-29T12:09:09;4.68;;;3.70;;
23080;SDS011;11708;50.570;8.532;2023-04-29T12:11:35;5.30;;;3.90;;
23080;SDS011;11708;50.570;8.532;2023-04-29T12:14:02;5.38;;;3.38;;
23080;SDS011;11708;50.570;8.532;2023-04-29T12:16:30;4.50;;;3.25;;
23080;SDS011;11708;50.570;8.532;2023-04-29T12:18:56;4.80;;;3.28;;
23080;SDS011;11708;50.570;8.532;2023-04-29T12:21:23;4.18;;;3.25;;
23080;SDS011;11708;50.570;8.532;2023-04-29T12:23:49;4.18;;;2.97;;
23080;SDS011;11708;50.570;8.532;2023-04-29T12:26:15;4.25;;;2.90;;
23080;SDS011;11708;50.570;8.532;2023-04-29T12:28:43;4.10;;;3.10;;
23080;SDS011;11708;50.570;8.532;2023-04-29T12:31:09;5.75;;;3.92;;
23080;SDS011;11708;50.570;8.532;2023-04-29T12:33:38;6.30;;;3.70;;
23080;SDS011;11708;50.570;8.532;2023-04-29T12:36:14;4.68;;;3.55;;
23080;SDS011;11708;50.570;8.532;2023-04-29T12:38:46;4.53;;;3.75;;
23080;SDS011;11708;50.570;8.532;2023-04-29T12:41:12;5.70;;;3.42;;
23080;SDS011;11708;50.570;8.532;2023-04-29T12:43:40;5.85;;;4.32;;
23080;SDS011;11708;50.570;8.532;2023-04-29T12:46:07;6.28;;;4.38;;
23080;SDS011;11708;50.570;8.532;2023-04-29T12:48:33;6.00;;;4.05;;
23080;SDS011;11708;50.570;8.532;2023-04-29T12:51:02;5.55;;;4.28;;
23080;SDS011;11708;50.570;8.532;2023-04-29T12:53:28;6.00;;;3.58;;
23080;SDS011;11708;50.570;8.532;2023-04-29T12:55:54;4.90;;;3.50;;
23080;SDS011;11708;50.570;8.532;2023-04-29T12:58:22;3.58;;;2.90;;
23080;SDS011;11708;50.570;8.532;2023-04-29T13:00:47;5.03;;;3.78;;
23080;SDS011;11708;50.570;8.532;2023-04-29T13:03:13;4.15;;;2.90;;
23080;SDS011;11708;50.570;8.532;2023-04-29T13:05:39;3.55;;;2.70;;
23080;SDS011;11708;50.570;8.532;2023-04-29T13:08:05;3.40;;;2.55;;
23080;SDS011;11708;50.570;8.532;2023-04-29T13:10:30;2.85;;;2.30;;
23080;SDS011;11708;50.570;8.532;2023-04-29T13:12:57;3.00;;;2.50;;
23080;SDS011;11708;50.570;8.532;2023-04-29T13:15:22;3.15;;;2.38;;
23080;SDS011;11708;50.570;8.532;2023-04-29T13:17:48;2.35;;;2.15;;
23080;SDS011;11708;50.570;8.532;2023-04-29T13:20:13;3.15;;;2.20;;
23080;SDS011;11708;50.570;8.532;2023-04-29T13:22:39;2.53;;;2.33;;
23080;SDS011;11708;50.570;8.532;2023-04-29T13:25:07;2.97;;;2.33;;
23080;SDS011;11708;50.570;8.532;2023-04-29T13:27:34;4.57;;;2.47;;
23080;SDS011;11708;50.570;8.532;2023-04-29T13:30:01;2.83;;;2.25;;
23080;SDS011;11708;50.570;8.532;2023-04-29T13:32:26;2.95;;;2.28;;
23080;SDS011;11708;50.570;8.532;2023-04-29T13:34:52;2.20;;;2.00;;
23080;SDS011;11708;50.570;8.532;2023-04-29T13:37:18;3.08;;;1.70;;
23080;SDS011;11708;50.570;8.532;2023-04-29T13:39:44;3.90;;;2.05;;
23080;SDS011;11708;50.570;8.532;2023-04-29T13:42:10;1.92;;;1.80;;
23080;SDS011;11708;50.570;8.532;2023-04-29T13:44:35;3.22;;;1.65;;
23080;SDS011;11708;50.570;8.532;2023-04-29T13:47:14;1.65;;;1.55;;
23080;SDS011;11708;50.570;8.532;2023-04-29T13:49:40;2.70;;;2.00;;
23080;SDS011;11708;50.570;8.532;2023-04-29T13:52:08;2.70;;;2.10;;
23080;SDS011;11708;50.570;8.532;2023-04-29T13:54:34;1.80;;;1.52;;
23080;SDS011;11708;50.570;8.532;2023-04-29T13:57:00;2.15;;;1.45;;
23080;SDS011;11708;50.570;8.532;2023-04-29T13:59:33;3.38;;;2.08;;
23080;SDS011;11708;50.570;8.532;2023-04-29T14:01:59;1.90;;;1.60;;
23080;SDS011;11708;50.570;8.532;2023-04-29T14:04:25;1.63;;;1.40;;
23080;SDS011;11708;50.570;8.532;2023-04-29T14:06:51;1.92;;;1.60;;
23080;SDS011;11708;50.570;8.532;2023-04-29T14:09:17;1.70;;;1.48;;
23080;SDS011;11708;50.570;8.532;2023-04-29T14:11:45;1.60;;;1.50;;
23080;SDS011;11708;50.570;8.532;2023-04-29T14:14:11;1.70;;;1.60;;
23080;SDS011;11708;50.570;8.532;2023-04-29T14:16:37;1.50;;;1.40;;
23080;SDS011;11708;50.570;8.532;2023-04-29T14:19:02;2.25;;;1.60;;
23080;SDS011;11708;50.570;8.532;2023-04-29T14:21:28;2.40;;;1.98;;
23080;SDS011;11708;50.570;8.532;2023-04-29T14:23:54;2.20;;;1.77;;
23080;SDS011;11708;50.570;8.532;2023-04-29T14:26:20;2.00;;;1.80;;
23080;SDS011;11708;50.570;8.532;2023-04-29T14:28:47;3.78;;;1.90;;
23080;SDS011;11708;50.570;8.532;2023-04-29T14:31:21;2.75;;;2.10;;
23080;SDS011;11708;50.570;8.532;2023-04-29T14:34:00;2.25;;;1.80;;
23080;SDS011;11708;50.570;8.532;2023-04-29T14:36:25;2.20;;;1.85;;
23080;SDS011;11708;50.570;8.532;2023-04-29T14:38:52;3.42;;;2.45;;
23080;SDS011;11708;50.570;8.532;2023-04-29T14:41:17;2.55;;;2.20;;
23080;SDS011;11708;50.570;8.532;2023-04-29T14:43:45;3.33;;;2.40;;
23080;SDS011;11708;50.570;8.532;2023-04-29T14:46:10;5.03;;;3.05;;
23080;SDS011;11708;50.570;8.532;2023-04-29T14:48:36;3.08;;;2.47;;
23080;SDS011;11708;50.570;8.532;2023-04-29T14:51:02;4.38;;;2.90;;
23080;SDS011;11708;50.570;8.532;2023-04-29T14:53:27;4.43;;;2.65;;
23080;SDS011;11708;50.570;8.532;2023-04-29T14:55:54;3.55;;;2.80;;
23080;SDS011;11708;50.570;8.532;2023-04-29T14:58:20;3.55;;;3.10;;
23080;SDS011;11708;50.570;8.532;2023-04-29T15:00:46;5.50;;;3.30;;
23080;SDS011;11708;50.570;8.532;2023-04-29T15:03:11;4.50;;;3.50;;
23080;SDS011;11708;50.570;8.532;2023-04-29T15:05:37;5.15;;;3.58;;
23080;SDS011;11708;50.570;8.532;2023-04-29T15:08:02;4.80;;;3.85;;
23080;SDS011;11708;50.570;8.532;2023-04-29T15:10:28;5.22;;;4.03;;
23080;SDS011;11708;50.570;8.532;2023-04-29T15:12:54;7.20;;;4.40;;